Time;durP1;ratioP1;P1;durP2;ratioP2;P2;SDS_P1;SDS_P2;PMS_P1;PMS_P2;Temp;Humidity;BMP_temperature;BMP_pressure;BME280_temperature;BME280_humidity;BME280_pressure;Samples;Min_cycle;Max_cycle;Signal;HPM_P1;HPM_P2
2021/11/24 00:00:29;;;;;;;33.85;19.23;;;2.90;99.90;;;;;;4986204;28;20050;-83
2021/11/24 00:02:57;;;;;;;40.60;21.50;;;2.50;99.90;;;;;;4980219;28;20509;-81
2021/11/24 00:05:25;;;;;;;37.17;23.17;;;2.50;99.90;;;;;;4975734;28;20467;-83
2021/11/24 00:07:52;;;;;;;36.78;19.63;;;2.50;99.90;;;;;;5000757;28;20054;-83
2021/11/24 00:10:20;;;;;;;40.22;21.08;;;2.40;99.90;;;;;;4968090;28;20340;-81
2021/11/24 00:12:48;;;;;;;37.35;19.38;;;1.50;99.90;;;;;;4968819;28;20058;-83
2021/11/24 00:15:16;;;;;;;38.00;19.77;;;2.40;99.90;;;;;;4968216;28;20069;-82
2021/11/24 00:17:43;;;;;;;36.17;21.27;;;2.40;99.90;;;;;;5000033;28;20390;-82
2021/11/24 00:20:11;;;;;;;40.97;19.48;;;2.40;99.90;;;;;;4967933;28;20050;-82
2021/11/24 00:22:39;;;;;;;38.55;20.70;;;2.70;99.90;;;;;;4968697;28;20053;-82
2021/11/24 00:25:07;;;;;;;35.38;19.17;;;2.30;99.90;;;;;;4983398;28;20054;-81
2021/11/24 00:27:35;;;;;;;42.05;20.10;;;2.30;99.90;;;;;;4968441;28;20073;-82
2021/11/24 00:30:04;;;;;;;38.85;20.00;;;2.30;99.90;;;;;;4966915;28;20054;-83
2021/11/24 00:32:33;;;;;;;40.08;20.92;;;2.30;99.90;;;;;;4967855;28;20053;-82
2021/11/24 00:35:02;;;;;;;37.33;18.42;;;3.00;99.90;;;;;;4968077;28;20143;-81
2021/11/24 00:37:30;;;;;;;32.47;18.75;;;2.30;99.90;;;;;;4998850;28;20375;-84
2021/11/24 00:40:04;;;;;;;40.17;18.67;;;2.30;99.90;;;;;;4966621;28;20047;-83
2021/11/24 00:42:33;;;;;;;33.20;18.60;;;2.20;99.90;;;;;;4968518;28;20049;-85
2021/11/24 00:45:01;;;;;;;34.42;18.58;;;2.20;99.90;;;;;;4967589;28;20054;-81
2021/11/24 00:47:29;;;;;;;38.33;18.23;;;2.10;99.90;;;;;;4967724;28;20046;-82
2021/11/24 00:49:56;;;;;;;34.03;17.63;;;2.10;99.90;;;;;;4966707;28;20552;-82
2021/11/24 00:52:26;;;;;;;39.05;20.27;;;2.10;99.90;;;;;;4967849;28;20058;-81
2021/11/24 00:54:54;;;;;;;48.33;23.90;;;2.10;99.90;;;;;;4985560;28;20086;-81
2021/11/24 00:57:22;;;;;;;37.80;19.35;;;2.30;99.90;;;;;;4968589;28;20065;-81
2021/11/24 00:59:49;;;;;;;34.60;21.58;;;2.10;99.90;;;;;;4967342;28;20057;-81
2021/11/24 01:02:17;;;;;;;36.47;19.33;;;2.00;99.90;;;;;;4999718;28;20058;-82
2021/11/24 01:04:45;;;;;;;37.88;20.92;;;2.00;99.90;;;;;;4966951;28;20058;-82
2021/11/24 01:07:12;;;;;;;34.00;20.33;;;2.00;99.90;;;;;;4968178;28;20059;-82
2021/11/24 01:09:40;;;;;;;39.35;18.25;;;2.00;99.90;;;;;;4967054;28;20055;-83
2021/11/24 01:12:08;;;;;;;41.10;19.58;;;1.90;99.90;;;;;;5000169;28;20057;-82
2021/11/24 01:14:36;;;;;;;39.80;22.52;;;2.00;99.90;;;;;;4967734;28;20065;-82
2021/11/24 01:17:04;;;;;;;40.50;20.45;;;1.90;99.90;;;;;;4997925;28;20055;-81
2021/11/24 01:19:32;;;;;;;38.28;20.45;;;1.90;99.90;;;;;;4968642;28;20046;-83
2021/11/24 01:21:59;;;;;;;35.78;21.60;;;1.90;99.90;;;;;;4971899;28;20094;-83
2021/11/24 01:24:27;;;;;;;41.22;21.10;;;1.90;99.90;;;;;;5003077;28;20051;-83
2021/11/24 01:26:55;;;;;;;39.05;21.52;;;1.90;99.90;;;;;;5003721;28;20050;-81
2021/11/24 01:29:22;;;;;;;39.88;20.65;;;1.80;99.90;;;;;;4973013;28;20046;-84
2021/11/24 01:31:50;;;;;;;35.50;20.88;;;1.80;99.90;;;;;;4971989;28;20054;-81
2021/11/24 01:34:18;;;;;;;40.53;18.25;;;1.80;99.90;;;;;;4972897;28;20555;-82
2021/11/24 01:36:45;;;;;;;37.25;21.15;;;1.80;99.90;;;;;;5002465;28;20051;-82
2021/11/24 01:39:13;;;;;;;41.10;22.58;;;2.60;99.90;;;;;;4985995;28;20050;-82
2021/11/24 01:41:40;;;;;;;36.47;19.90;;;1.80;99.90;;;;;;4971672;28;20050;-81
2021/11/24 01:44:20;;;;;;;43.88;20.88;;;1.80;99.90;;;;;;4952967;28;20882;-82
2021/11/24 01:47:00;;;;;;;32.65;18.70;;;1.80;99.90;;;;;;4997318;28;20047;-84
2021/11/24 01:49:29;;;;;;;37.88;20.45;;;1.80;99.90;;;;;;4970797;28;20398;-86
2021/11/24 01:51:57;;;;;;;35.08;18.00;;;1.70;99.90;;;;;;4971213;28;20541;-82
2021/11/24 01:54:27;;;;;;;34.80;18.00;;;1.70;99.90;;;;;;5002378;28;20089;-82
2021/11/24 01:56:55;;;;;;;35.80;20.15;;;1.70;99.90;;;;;;5002336;28;20077;-83
2021/11/24 01:59:24;;;;;;;34.53;18.58;;;1.70;99.90;;;;;;4986098;28;20047;-82
2021/11/24 02:01:52;;;;;;;35.30;17.55;;;2.90;99.90;;;;;;5003001;28;20380;-83
2021/11/24 02:04:20;;;;;;;43.25;24.70;;;1.70;99.90;;;;;;4972128;28;20486;-82
2021/11/24 02:06:50;;;;;;;39.08;19.80;;;1.70;99.90;;;;;;4990424;28;20084;-84
2021/11/24 02:09:18;;;;;;;39.20;21.73;;;1.70;99.90;;;;;;4990012;28;20061;-82
2021/11/24 02:11:46;;;;;;;41.25;20.05;;;1.70;99.90;;;;;;4990582;28;20050;-82
2021/11/24 02:14:15;;;;;;;36.08;19.35;;;1.70;99.90;;;;;;5005356;28;20081;-83
2021/11/24 02:16:45;;;;;;;42.75;23.48;;;1.80;99.90;;;;;;4990838;28;20089;-83
2021/11/24 02:19:14;;;;;;;41.83;24.08;;;1.80;99.90;;;;;;4990181;28;20050;-81
2021/11/24 02:21:52;;;;;;;36.00;19.80;;;1.90;99.90;;;;;;4991930;28;20058;-83
2021/11/24 02:24:22;;;;;;;41.35;21.42;;;1.90;99.90;;;;;;5022361;28;20061;-84
2021/11/24 02:26:50;;;;;;;39.35;19.70;;;2.00;99.90;;;;;;5023117;28;20042;-84
2021/11/24 02:29:18;;;;;;;38.30;19.52;;;2.10;99.90;;;;;;5005208;28;20038;-89
2021/11/24 02:31:47;;;;;;;35.22;19.50;;;2.20;99.90;;;;;;4991365;28;20056;-84
2021/11/24 02:34:16;;;;;;;39.45;19.98;;;2.30;99.90;;;;;;5005603;28;20046;-82
2021/11/24 02:36:43;;;;;;;38.40;18.20;;;2.50;99.90;;;;;;4990890;28;20357;-86
2021/11/24 02:39:12;;;;;;;38.55;20.83;;;2.50;99.90;;;;;;5005087;28;20043;-82
2021/11/24 02:41:40;;;;;;;36.85;21.40;;;2.40;99.90;;;;;;5006156;28;20057;-85
2021/11/24 02:44:25;;;;;;;34.78;18.52;;;2.40;99.90;;;;;;4991843;28;20039;-83
2021/11/24 02:46:56;;;;;;;37.08;19.83;;;2.50;99.90;;;;;;5005021;28;20054;-82
2021/11/24 02:49:23;;;;;;;38.47;20.25;;;2.50;99.90;;;;;;4973497;28;20043;-82
2021/11/24 02:51:51;;;;;;;37.88;20.33;;;2.60;99.90;;;;;;5008017;28;20061;-82
2021/11/24 02:54:18;;;;;;;35.58;20.50;;;2.60;99.90;;;;;;5001340;28;20042;-81
2021/11/24 02:56:46;;;;;;;39.20;21.83;;;2.70;99.90;;;;;;4999697;28;20485;-82
2021/11/24 02:59:13;;;;;;;41.63;22.25;;;2.70;99.90;;;;;;4995246;28;20054;-87
2021/11/24 03:01:41;;;;;;;37.78;22.25;;;2.70;99.90;;;;;;4993283;28;20050;-82
2021/11/24 03:04:09;;;;;;;35.75;21.25;;;2.70;99.90;;;;;;4994793;28;20046;-85
2021/11/24 03:06:37;;;;;;;36.75;20.70;;;2.80;99.90;;;;;;4994537;28;20062;-82
2021/11/24 03:09:05;;;;;;;35.72;20.75;;;3.10;99.90;;;;;;4994971;28;20050;-81
2021/11/24 03:11:34;;;;;;;40.40;21.70;;;2.80;99.90;;;;;;5007532;28;20061;-82
2021/11/24 03:14:02;;;;;;;44.05;23.67;;;3.10;99.90;;;;;;4973172;28;20471;-82
2021/11/24 03:16:30;;;;;;;38.95;20.05;;;2.80;99.90;;;;;;5005735;28;20046;-82
2021/11/24 03:18:58;;;;;;;41.45;20.52;;;2.80;99.90;;;;;;4989868;28;20411;-81
2021/11/24 03:21:25;;;;;;;36.95;21.50;;;2.80;99.90;;;;;;4991330;28;20413;-82
2021/11/24 03:23:53;;;;;;;34.83;20.00;;;2.80;99.90;;;;;;4988802;28;20046;-81
2021/11/24 03:26:20;;;;;;;38.35;22.08;;;3.50;99.90;;;;;;5003635;28;20061;-82
2021/11/24 03:28:48;;;;;;;43.72;22.40;;;2.90;99.90;;;;;;4971812;28;20058;-81
2021/11/24 03:31:16;;;;;;;39.15;21.50;;;4.10;99.90;;;;;;4989837;28;20050;-82
2021/11/24 03:33:43;;;;;;;38.80;22.52;;;2.90;99.90;;;;;;4986731;28;20128;-82
2021/11/24 03:36:11;;;;;;;40.67;22.55;;;2.90;99.90;;;;;;5003583;28;20054;-82
2021/11/24 03:38:39;;;;;;;38.97;21.95;;;3.00;99.90;;;;;;4988925;28;20053;-81
2021/11/24 03:41:07;;;;;;;39.47;22.60;;;3.00;99.90;;;;;;4988204;28;20122;-81
2021/11/24 03:43:35;;;;;;;43.10;21.90;;;3.10;99.90;;;;;;4989836;28;20049;-82
2021/11/24 03:46:02;;;;;;;38.72;21.75;;;3.10;99.90;;;;;;4996515;28;20038;-82
2021/11/24 03:48:30;;;;;;;46.28;24.02;;;3.10;99.90;;;;;;5021228;28;20053;-83
2021/11/24 03:50:58;;;;;;;43.42;21.95;;;3.20;99.90;;;;;;4989149;28;20367;-82
2021/11/24 03:53:25;;;;;;;38.00;20.75;;;3.10;99.90;;;;;;4988421;28;20045;-82
2021/11/24 03:55:53;;;;;;;37.50;19.85;;;3.30;99.90;;;;;;4991176;28;20049;-83
2021/11/24 03:58:21;;;;;;;37.40;20.67;;;3.30;99.90;;;;;;5024481;28;20046;-82
2021/11/24 04:00:48;;;;;;;39.03;22.35;;;3.40;99.90;;;;;;4975552;28;20053;-82
2021/11/24 04:03:16;;;;;;;43.00;21.60;;;3.40;99.90;;;;;;5022674;28;20050;-81
2021/11/24 04:05:44;;;;;;;42.85;21.92;;;3.40;99.90;;;;;;5004557;28;20058;-81
2021/11/24 04:08:12;;;;;;;42.42;21.02;;;3.40;99.90;;;;;;4989605;28;20054;-81
2021/11/24 04:10:39;;;;;;;44.97;23.10;;;3.40;99.90;;;;;;4990182;28;20477;-81
2021/11/24 04:13:07;;;;;;;38.03;21.73;;;3.40;99.90;;;;;;4989929;28;20039;-81
2021/11/24 04:15:35;;;;;;;42.08;22.80;;;3.70;99.90;;;;;;4993941;28;20042;-82
2021/11/24 04:18:02;;;;;;;43.00;21.63;;;5.00;99.90;;;;;;4990541;28;20053;-84
2021/11/24 04:20:30;;;;;;;54.10;23.63;;;3.50;99.90;;;;;;4992093;28;20415;-81
2021/11/24 04:22:58;;;;;;;43.53;22.65;;;3.50;99.90;;;;;;4992391;28;20054;-82
2021/11/24 04:25:25;;;;;;;43.08;23.17;;;3.50;99.90;;;;;;4993284;28;20047;-81
2021/11/24 04:27:53;;;;;;;44.00;23.67;;;3.50;99.90;;;;;;4993585;28;20688;-82
2021/11/24 04:30:20;;;;;;;40.50;23.17;;;3.50;99.90;;;;;;4992130;28;20122;-81
2021/11/24 04:32:50;;;;;;;45.53;23.33;;;4.00;99.90;;;;;;4992998;28;20502;-81
2021/11/24 04:35:19;;;;;;;40.90;22.55;;;4.90;99.90;;;;;;4974746;28;20042;-80
2021/11/24 04:37:47;;;;;;;43.92;25.33;;;5.30;99.90;;;;;;4992046;28;20058;-81
2021/11/24 04:40:15;;;;;;;48.03;29.02;;;3.40;99.90;;;;;;4990607;28;20047;-81
2021/11/24 04:42:44;;;;;;;46.28;27.83;;;3.40;99.90;;;;;;4991915;28;20057;-81
2021/11/24 04:45:13;;;;;;;47.75;29.90;;;3.40;99.90;;;;;;5006042;28;20054;-82
2021/11/24 04:47:40;;;;;;;51.05;26.58;;;3.40;99.90;;;;;;5005971;28;20512;-81
2021/11/24 04:50:09;;;;;;;44.50;28.50;;;4.00;99.90;;;;;;4978591;28;20050;-81
2021/11/24 04:52:37;;;;;;;50.90;27.98;;;3.30;99.90;;;;;;4976903;28;20046;-81
2021/11/24 04:55:05;;;;;;;46.80;23.38;;;3.30;99.90;;;;;;4992121;28;20061;-81
2021/11/24 04:57:33;;;;;;;48.17;25.92;;;3.30;99.90;;;;;;4993448;28;20050;-81
2021/11/24 05:00:06;;;;;;;57.15;26.80;;;3.20;99.90;;;;;;4993791;28;20630;-81
2021/11/24 05:02:33;;;;;;;46.15;24.48;;;3.20;99.90;;;;;;4993222;28;20054;-81
2021/11/24 05:05:02;;;;;;;43.47;27.38;;;3.10;99.90;;;;;;4983422;28;20051;-81
2021/11/24 05:07:30;;;;;;;43.95;24.08;;;3.20;99.90;;;;;;4987816;28;20389;-82
2021/11/24 05:10:03;;;;;;;39.40;23.92;;;3.20;99.90;;;;;;4991807;28;20053;-82
2021/11/24 05:12:33;;;;;;;44.05;25.42;;;3.20;99.90;;;;;;5007741;28;20050;-82
2021/11/24 05:15:01;;;;;;;51.67;24.77;;;3.20;99.90;;;;;;4989928;28;20046;-81
2021/11/24 05:17:30;;;;;;;44.30;23.95;;;3.20;99.90;;;;;;4976626;28;20058;-81
2021/11/24 05:19:58;;;;;;;40.83;23.70;;;3.20;99.90;;;;;;5000062;28;20050;-82
2021/11/24 05:22:26;;;;;;;43.05;23.60;;;3.60;99.90;;;;;;4990269;28;20046;-82
2021/11/24 05:24:54;;;;;;;46.53;26.42;;;5.30;99.90;;;;;;4991921;28;20529;-82
2021/11/24 05:27:21;;;;;;;44.38;23.92;;;3.10;99.90;;;;;;4973867;28;20046;-82
2021/11/24 05:29:49;;;;;;;39.55;23.35;;;3.00;99.90;;;;;;4992147;28;20046;-81
2021/11/24 05:32:17;;;;;;;52.22;26.60;;;3.00;99.90;;;;;;5004895;28;20520;-82
2021/11/24 05:34:44;;;;;;;43.85;25.55;;;3.10;99.90;;;;;;4980400;28;20047;-81
2021/11/24 05:37:12;;;;;;;40.03;23.77;;;3.10;99.90;;;;;;5005659;28;20054;-81
2021/11/24 05:39:40;;;;;;;47.03;26.85;;;2.90;99.90;;;;;;4991598;28;20470;-83
2021/11/24 05:42:08;;;;;;;44.47;25.00;;;2.80;99.90;;;;;;4958235;28;20049;-82
2021/11/24 05:44:38;;;;;;;42.92;25.63;;;2.80;99.90;;;;;;4987369;28;20058;-82
2021/11/24 05:47:11;;;;;;;46.55;24.80;;;2.70;99.90;;;;;;4977939;28;20526;-84
2021/11/24 05:49:51;;;;;;;46.30;25.80;;;2.70;99.90;;;;;;4991364;28;20050;-85
2021/11/24 05:52:19;;;;;;;41.45;24.70;;;2.70;99.90;;;;;;4994256;28;20046;-87
2021/11/24 05:54:46;;;;;;;46.40;26.80;;;2.60;99.90;;;;;;4974684;28;20064;-85
2021/11/24 05:57:16;;;;;;;52.70;29.20;;;2.60;99.90;;;;;;5007077;28;20054;-83
2021/11/24 05:59:44;;;;;;;47.67;25.95;;;2.60;99.90;;;;;;5006154;28;20038;-85
2021/11/24 06:02:11;;;;;;;43.88;23.98;;;2.50;99.90;;;;;;5013756;28;20482;-83
2021/11/24 06:04:39;;;;;;;44.90;26.10;;;2.50;99.90;;;;;;4982618;28;20054;-88
2021/11/24 06:07:07;;;;;;;52.20;25.95;;;2.50;99.90;;;;;;4983696;28;20050;-89
2021/11/24 06:09:34;;;;;;;43.78;26.15;;;2.50;99.90;;;;;;4993688;28;20042;-81
2021/11/24 06:12:02;;;;;;;40.22;21.60;;;2.40;99.90;;;;;;4977870;28;20057;-81
2021/11/24 06:14:30;;;;;;;54.13;29.35;;;2.40;99.90;;;;;;4991844;28;20050;-81
2021/11/24 06:16:58;;;;;;;46.95;26.33;;;2.40;99.90;;;;;;4992193;28;20502;-84
2021/11/24 06:19:26;;;;;;;56.95;28.80;;;2.70;99.90;;;;;;5006333;28;20478;-82
2021/11/24 06:21:53;;;;;;;51.78;26.88;;;2.30;99.90;;;;;;4989597;28;20502;-81
2021/11/24 06:24:21;;;;;;;43.65;26.70;;;2.40;99.90;;;;;;4992387;28;20381;-82
2021/11/24 06:26:49;;;;;;;42.75;23.50;;;2.30;99.90;;;;;;4973231;28;20057;-82
2021/11/24 06:29:16;;;;;;;53.10;26.48;;;2.30;99.90;;;;;;4989455;28;20061;-82
2021/11/24 06:31:45;;;;;;;46.20;26.73;;;2.30;99.90;;;;;;4989925;28;20053;-80
2021/11/24 06:34:13;;;;;;;61.97;28.00;;;2.90;99.90;;;;;;4991407;28;20066;-82
2021/11/24 06:36:56;;;;;;;46.72;24.88;;;2.20;99.90;;;;;;4970317;28;20628;-82
2021/11/24 06:39:25;;;;;;;52.88;27.08;;;2.20;99.90;;;;;;4971672;28;20042;-81
2021/11/24 06:41:55;;;;;;;44.42;25.80;;;2.20;99.90;;;;;;4972514;28;20165;-84
2021/11/24 06:44:23;;;;;;;48.70;27.05;;;2.20;99.90;;;;;;4988878;28;20047;-81
2021/11/24 06:46:51;;;;;;;47.63;25.77;;;2.20;99.90;;;;;;4991832;28;20066;-82
2021/11/24 06:49:19;;;;;;;54.05;26.65;;;2.20;99.90;;;;;;4988854;28;20057;-82
2021/11/24 06:51:47;;;;;;;43.60;24.90;;;2.10;99.90;;;;;;4989562;28;20042;-81
2021/11/24 06:54:18;;;;;;;42.92;26.17;;;2.10;99.90;;;;;;4989535;28;20057;-82
2021/11/24 06:56:47;;;;;;;;;;;2.10;99.90;;;;;;5006880;28;20048;-82
2021/11/24 06:59:15;;;;;;;50.47;27.40;;;2.10;99.90;;;;;;4998874;28;19932;-82
2021/11/24 07:01:43;;;;;;;56.00;28.65;;;2.10;99.90;;;;;;4991999;28;20054;-82
2021/11/24 07:04:12;;;;;;;53.60;27.38;;;2.10;99.90;;;;;;4987351;28;20057;-83
2021/11/24 07:06:40;;;;;;;48.20;27.33;;;2.30;99.90;;;;;;4989286;28;20136;-84
2021/11/24 07:09:10;;;;;;;57.20;26.67;;;2.10;99.90;;;;;;4989170;28;20046;-81
2021/11/24 07:11:39;;;;;;;50.50;28.15;;;2.10;99.90;;;;;;5000619;28;20057;-81
2021/11/24 07:14:10;;;;;;;61.47;29.02;;;2.60;99.90;;;;;;4989249;28;20106;-82
2021/11/24 07:16:38;;;;;;;;;;;2.20;99.90;;;;;;4991435;28;20049;-83
2021/11/24 07:19:06;;;;;;;52.28;31.33;;;2.80;99.90;;;;;;4992107;28;19968;-83
2021/11/24 07:21:35;;;;;;;46.72;27.58;;;2.30;99.90;;;;;;4992170;28;20050;-81
2021/11/24 07:24:03;;;;;;;54.67;29.10;;;2.30;99.90;;;;;;4991374;28;20042;-84
2021/11/24 07:26:31;;;;;;;48.22;28.15;;;2.40;99.90;;;;;;4971562;28;20074;-86
2021/11/24 07:28:58;;;;;;;48.80;28.10;;;2.40;99.90;;;;;;4973698;28;20077;-83
2021/11/24 07:31:26;;;;;;;59.40;32.70;;;2.20;99.90;;;;;;4992089;28;20049;-83
2021/11/24 07:33:54;;;;;;;58.13;37.53;;;2.50;99.90;;;;;;4997754;28;20054;-83
2021/11/24 07:36:21;;;;;;;58.75;34.65;;;2.50;99.90;;;;;;4992623;28;20050;-84
2021/11/24 07:38:49;;;;;;;63.30;34.38;;;3.80;99.90;;;;;;4996754;28;20057;-83
2021/11/24 07:41:17;;;;;;;55.03;30.27;;;2.60;99.90;;;;;;4996414;28;20045;-81
2021/11/24 07:43:45;;;;;;;74.65;33.20;;;4.30;99.90;;;;;;4992644;28;20046;-82
2021/11/24 07:46:12;;;;;;;56.33;34.05;;;2.70;99.90;;;;;;5006869;28;20049;-88
2021/11/24 07:48:40;;;;;;;47.60;29.08;;;2.70;99.90;;;;;;4989878;28;20046;-81
2021/11/24 07:51:11;;;;;;;60.05;33.03;;;2.80;99.90;;;;;;4988683;28;20135;-81
2021/11/24 07:53:38;;;;;;;55.25;34.05;;;2.80;99.90;;;;;;4988494;28;20050;-81
2021/11/24 07:56:07;;;;;;;52.80;33.53;;;2.80;99.90;;;;;;4989536;28;20058;-82
2021/11/24 07:58:35;;;;;;;60.00;33.50;;;3.90;99.90;;;;;;4988100;28;20045;-82
2021/11/24 08:01:02;;;;;;;63.33;37.97;;;3.10;99.90;;;;;;4992776;28;20596;-81
2021/11/24 08:03:30;;;;;;;59.60;33.30;;;3.00;99.90;;;;;;4992246;28;20046;-81
2021/11/24 08:05:58;;;;;;;56.60;30.45;;;4.60;99.90;;;;;;4994167;28;20339;-81
2021/11/24 08:08:26;;;;;;;53.40;31.63;;;3.10;99.90;;;;;;4995878;28;20038;-82
2021/11/24 08:10:53;;;;;;;57.78;31.63;;;3.10;99.90;;;;;;4993913;28;20420;-81
2021/11/24 08:13:21;;;;;;;58.13;31.08;;;3.20;99.90;;;;;;4996368;28;20051;-81
2021/11/24 08:15:49;;;;;;;54.47;33.33;;;3.20;99.90;;;;;;4984384;28;20051;-81
2021/11/24 08:18:17;;;;;;;49.35;31.25;;;3.20;99.90;;;;;;4991482;28;20061;-80
2021/11/24 08:20:45;;;;;;;56.00;30.58;;;3.30;99.90;;;;;;4986680;28;20625;-82
2021/11/24 08:23:12;;;;;;;59.78;33.10;;;3.30;99.90;;;;;;4987846;28;20050;-81
2021/11/24 08:25:40;;;;;;;55.10;34.10;;;3.30;99.90;;;;;;4986989;28;20046;-80
2021/11/24 08:28:08;;;;;;;60.53;35.72;;;3.30;99.90;;;;;;4970080;28;20050;-83
2021/11/24 08:30:36;;;;;;;58.67;32.45;;;3.40;99.90;;;;;;4968952;28;20541;-81
2021/11/24 08:33:04;;;;;;;57.22;33.95;;;3.40;99.90;;;;;;4987247;28;20061;-80
2021/11/24 08:35:32;;;;;;;60.80;32.58;;;3.40;99.90;;;;;;5001133;28;20054;-81
2021/11/24 08:37:59;;;;;;;55.22;31.48;;;3.50;99.90;;;;;;4973288;28;20057;-81
2021/11/24 08:40:28;;;;;;;60.50;33.15;;;3.50;99.90;;;;;;4989898;28;20054;-81
2021/11/24 08:42:56;;;;;;;55.70;32.97;;;3.50;99.90;;;;;;5012633;28;20061;-81
2021/11/24 08:45:24;;;;;;;63.08;31.45;;;3.50;99.90;;;;;;4995055;28;20509;-82
2021/11/24 08:47:52;;;;;;;58.97;32.65;;;3.50;99.90;;;;;;4994076;28;20058;-80
2021/11/24 08:50:20;;;;;;;68.78;37.30;;;3.50;99.90;;;;;;4974574;28;20045;-80
2021/11/24 08:52:48;;;;;;;58.83;33.83;;;3.60;99.90;;;;;;4988732;28;20063;-82
2021/11/24 08:55:17;;;;;;;61.72;35.08;;;3.60;99.90;;;;;;4989544;28;20046;-81
2021/11/24 08:57:46;;;;;;;58.70;35.38;;;3.60;99.90;;;;;;4989031;28;20061;-81
2021/11/24 09:00:15;;;;;;;57.95;34.35;;;3.80;99.90;;;;;;4992149;28;20532;-82
2021/11/24 09:02:44;;;;;;;59.22;35.00;;;3.70;99.90;;;;;;4993814;28;20050;-82
2021/11/24 09:05:15;;;;;;;67.45;33.72;;;4.60;99.90;;;;;;4975810;28;20060;-82
2021/11/24 09:07:43;;;;;;;60.47;35.85;;;3.90;99.90;;;;;;4990704;28;20046;-82
2021/11/24 09:10:11;;;;;;;61.53;34.63;;;3.90;99.90;;;;;;4971014;28;20139;-81
2021/11/24 09:12:39;;;;;;;63.13;34.60;;;4.10;99.90;;;;;;4974766;28;20065;-81
2021/11/24 09:15:08;;;;;;;56.75;32.15;;;4.10;99.90;;;;;;4988799;28;20379;-81
2021/11/24 09:17:57;;;;;;;62.35;35.90;;;4.20;99.90;;;;;;4978672;28;20047;-81
2021/11/24 09:20:25;;;;;;;58.95;31.77;;;4.30;99.90;;;;;;5002644;28;20057;-82
2021/11/24 09:22:53;;;;;;;63.20;37.72;;;4.40;99.90;;;;;;4981106;28;20057;-82
2021/11/24 09:25:24;;;;;;;66.72;33.83;;;4.60;99.90;;;;;;4991768;28;20465;-81
2021/11/24 09:27:59;;;;;;;53.58;31.48;;;4.50;99.90;;;;;;5001573;28;20076;-84
2021/11/24 09:30:27;;;;;;;62.13;35.58;;;4.70;99.90;;;;;;5002108;28;20042;-82
2021/11/24 09:32:55;;;;;;;61.17;36.13;;;4.80;99.90;;;;;;4959677;28;20058;-81
2021/11/24 09:35:23;;;;;;;71.00;33.17;;;5.20;99.90;;;;;;4986333;28;20516;-83
2021/11/24 09:37:52;;;;;;;64.65;36.75;;;6.30;99.90;;;;;;4989620;28;20835;-83
2021/11/24 09:40:20;;;;;;;63.47;35.85;;;6.00;99.90;;;;;;4991178;28;20054;-81
2021/11/24 09:42:48;;;;;;;65.07;34.10;;;5.20;99.90;;;;;;4993843;28;20690;-81
2021/11/24 09:45:16;;;;;;;63.70;36.17;;;5.30;99.90;;;;;;4997120;28;20061;-83
2021/11/24 09:47:46;;;;;;;60.53;33.60;;;5.40;99.90;;;;;;4999305;28;20778;-82
2021/11/24 09:50:17;;;;;;;60.63;34.42;;;5.50;99.90;;;;;;5000592;28;20058;-82
2021/11/24 09:52:46;;;;;;;55.00;33.35;;;5.60;99.90;;;;;;5002039;28;20063;-81
2021/11/24 09:55:14;;;;;;;61.20;34.13;;;5.70;99.90;;;;;;4997944;28;20074;-81
2021/11/24 09:57:43;;;;;;;56.00;33.67;;;5.80;99.90;;;;;;4998890;28;20054;-81
2021/11/24 10:00:12;;;;;;;68.13;32.97;;;6.90;99.90;;;;;;5001865;28;20149;-81
2021/11/24 10:02:42;;;;;;;68.72;37.50;;;6.00;99.90;;;;;;5000926;28;20050;-82
2021/11/24 10:05:10;;;;;;;64.25;40.22;;;6.10;99.90;;;;;;5003692;28;20481;-82
2021/11/24 10:07:41;;;;;;;74.45;39.47;;;6.20;99.90;;;;;;5000853;28;20042;-81
2021/11/24 10:10:09;;;;;;;81.00;43.53;;;6.60;99.90;;;;;;5010003;28;20058;-81
2021/11/24 10:12:39;;;;;;;71.53;42.90;;;6.40;99.90;;;;;;5010402;28;20292;-81
2021/11/24 10:15:11;;;;;;;65.53;38.83;;;6.40;99.90;;;;;;4984116;28;20057;-82
2021/11/24 10:17:39;;;;;;;55.17;30.13;;;6.50;99.90;;;;;;5000294;28;20497;-82
2021/11/24 10:20:12;;;;;;;60.83;34.30;;;6.60;99.90;;;;;;5016036;28;20120;-82
2021/11/24 10:22:42;;;;;;;57.67;34.72;;;6.70;99.90;;;;;;5020064;28;20038;-81
2021/11/24 10:25:12;;;;;;;55.47;31.67;;;7.60;99.90;;;;;;5014410;28;20060;-82
2021/11/24 10:27:48;;;;;;;56.08;31.83;;;6.90;99.90;;;;;;4988408;28;20045;-82
2021/11/24 10:30:28;;;;;;;52.65;32.33;;;6.90;99.90;;;;;;4975348;28;20043;-81
2021/11/24 10:33:17;;;;;;;46.08;29.35;;;7.00;99.90;;;;;;5003385;28;20578;-83
2021/11/24 10:36:12;;;;;;;56.13;32.60;;;7.10;99.90;;;;;;5000540;28;20046;-82
2021/11/24 10:38:43;;;;;;;62.03;35.17;;;7.20;99.90;;;;;;4999682;28;20042;-89
2021/11/24 10:41:12;;;;;;;61.58;33.05;;;7.30;99.90;;;;;;4968817;28;20057;-86
2021/11/24 10:43:46;;;;;;;63.00;31.80;;;7.40;99.90;;;;;;5017270;28;20053;-83
2021/11/24 10:46:22;;;;;;;59.70;32.08;;;7.40;99.90;;;;;;5019328;28;20057;-83
2021/11/24 10:49:05;;;;;;;56.45;33.65;;;7.40;99.90;;;;;;5025683;28;20080;-82
2021/11/24 10:51:35;;;;;;;62.50;30.27;;;7.60;99.90;;;;;;5010603;28;20042;-82
2021/11/24 10:54:21;;;;;;;51.78;30.77;;;7.60;99.90;;;;;;5018812;28;20042;-82
2021/11/24 10:57:21;;;;;;;61.10;32.40;;;7.60;99.90;;;;;;4992854;28;20062;-82
2021/11/24 10:59:50;;;;;;;56.42;29.30;;;7.70;99.90;;;;;;4966409;28;20089;-82
2021/11/24 11:02:26;;;;;;;54.33;31.58;;;7.70;99.90;;;;;;5010809;28;20038;-82
2021/11/24 11:04:58;;;;;;;54.60;32.35;;;7.80;99.90;;;;;;5015742;28;20061;-82
2021/11/24 11:07:28;;;;;;;59.67;33.63;;;7.90;99.90;;;;;;4985582;28;20054;-82
2021/11/24 11:10:07;;;;;;;56.08;32.88;;;7.90;99.90;;;;;;5008702;28;20054;-82
2021/11/24 11:12:36;;;;;;;49.72;29.27;;;7.90;99.90;;;;;;4984099;28;20626;-82
2021/11/24 11:15:33;;;;;;;47.88;29.45;;;8.00;99.90;;;;;;4993362;28;20045;-82
2021/11/24 11:18:15;;;;;;;47.00;27.30;;;8.10;99.90;;;;;;4992622;28;20058;-82
2021/11/24 11:20:51;;;;;;;49.13;28.67;;;8.10;99.90;;;;;;4991575;28;20050;-82
2021/11/24 11:23:30;;;;;;;47.58;24.55;;;8.10;99.90;;;;;;5017600;28;20058;-82
2021/11/24 11:26:13;;;;;;;47.03;24.77;;;8.20;99.90;;;;;;4991115;28;20048;-82
2021/11/24 11:28:49;;;;;;;48.50;24.88;;;8.20;99.90;;;;;;4988318;28;20065;-81
2021/11/24 11:31:19;;;;;;;44.90;23.85;;;8.30;99.90;;;;;;4972165;28;20045;-83
2021/11/24 11:33:51;;;;;;;43.83;25.50;;;8.30;99.90;;;;;;4971082;28;20062;-82
2021/11/24 11:36:18;;;;;;;44.22;24.20;;;8.40;99.90;;;;;;4971158;28;20047;-82
2021/11/24 11:38:56;;;;;;;44.13;24.30;;;8.40;99.90;;;;;;4970541;28;20486;-83
2021/11/24 11:41:30;;;;;;;47.25;25.95;;;8.40;99.90;;;;;;4990317;28;20055;-83
2021/11/24 11:44:19;;;;;;;47.45;27.33;;;8.40;99.90;;;;;;4987647;28;20046;-82
2021/11/24 11:47:07;;;;;;;46.83;25.00;;;8.50;99.90;;;;;;4988166;28;20042;-82
2021/11/24 11:49:37;;;;;;;46.13;24.98;;;8.50;99.90;;;;;;4988034;28;20071;-81
2021/11/24 11:52:10;;;;;;;43.30;25.33;;;8.50;99.90;;;;;;4959146;28;20053;-83
2021/11/24 11:54:38;;;;;;;48.55;24.35;;;8.50;99.90;;;;;;4982996;28;20054;-81
2021/11/24 11:57:17;;;;;;;41.03;23.88;;;8.50;99.90;;;;;;4982677;28;20074;-82
2021/11/24 12:00:03;;;;;;;47.65;26.65;;;8.60;99.90;;;;;;4967201;28;20050;-81
2021/11/24 12:02:31;;;;;;;51.20;27.80;;;8.60;99.90;;;;;;4966007;28;20418;-82
2021/11/24 12:05:05;;;;;;;46.17;24.45;;;8.80;99.90;;;;;;5002222;28;20054;-83
2021/11/24 12:07:33;;;;;;;42.38;24.95;;;8.60;99.90;;;;;;4961578;28;20054;-82
2021/11/24 12:10:07;;;;;;;47.25;28.05;;;8.70;99.90;;;;;;4989738;28;20058;-83
2021/11/24 12:12:35;;;;;;;47.40;25.27;;;8.70;99.90;;;;;;4968519;28;20062;-82
2021/11/24 12:15:19;;;;;;;45.65;26.42;;;8.70;99.90;;;;;;4992758;28;20414;-82
2021/11/24 12:18:11;;;;;;;39.75;25.38;;;8.70;99.90;;;;;;4954138;28;20444;-83
2021/11/24 12:20:44;;;;;;;46.28;26.00;;;8.80;99.90;;;;;;5004484;28;20053;-81
2021/11/24 12:23:32;;;;;;;49.95;31.35;;;8.80;99.90;;;;;;4990854;28;20049;-84
2021/11/24 12:26:04;;;;;;;49.38;27.02;;;9.60;99.90;;;;;;4972904;28;20088;-83
2021/11/24 12:28:35;;;;;;;44.85;25.70;;;8.90;99.90;;;;;;5006203;28;20051;-84
2021/11/24 12:31:10;;;;;;;52.28;26.95;;;8.90;99.90;;;;;;4990589;28;20070;-87
2021/11/24 12:33:52;;;;;;;46.35;25.95;;;8.90;99.90;;;;;;4976834;28;20057;-82
2021/11/24 12:36:24;;;;;;;44.67;26.27;;;8.90;99.90;;;;;;5011246;28;20058;-82
2021/11/24 12:39:01;;;;;;;43.22;25.48;;;9.00;99.90;;;;;;5004065;28;20046;-83
2021/11/24 12:41:38;;;;;;;42.08;25.13;;;8.90;99.90;;;;;;5024164;28;20072;-82
2021/11/24 12:44:11;;;;;;;39.15;23.02;;;8.80;99.90;;;;;;5022243;28;20497;-82
2021/11/24 12:46:42;;;;;;;45.05;24.98;;;9.10;99.90;;;;;;4969859;28;20636;-82
2021/11/24 12:49:16;;;;;;;51.47;27.08;;;8.80;99.90;;;;;;5007526;28;20050;-83
2021/11/24 12:51:50;;;;;;;47.72;27.15;;;8.80;99.90;;;;;;4993997;28;20050;-84